Time;durP1;ratioP1;P1;durP2;ratioP2;P2;SDS_P1;SDS_P2;PMS_P1;PMS_P2;Temp;Humidity;BMP_temperature;BMP_pressure;BME280_temperature;BME280_humidity;BME280_pressure;Samples;Min_cycle;Max_cycle;Signal;HPM_P1;HPM_P2
2022/02/15 00:01:01;;;;;;;7.82;3.58;;;7.70;99.90;;;6.34;96.55;100087.56;4915529;28;20030;-79
2022/02/15 00:03:27;;;;;;;11.07;4.07;;;7.70;99.90;;;6.31;95.94;100085.06;4946523;28;20029;-78
2022/02/15 00:05:53;;;;;;;8.35;3.08;;;7.60;99.90;;;6.26;96.12;100086.16;4930611;28;20398;-79
2022/02/15 00:08:24;;;;;;;7.28;3.35;;;7.60;99.90;;;6.22;96.13;100082.84;4942978;28;20037;-79
2022/02/15 00:10:51;;;;;;;19.35;3.90;;;7.60;99.90;;;6.17;96.26;100087.38;4939157;28;20100;-79
2022/02/15 00:13:17;;;;;;;8.82;3.30;;;7.50;99.90;;;6.14;96.29;100085.72;4966020;28;20063;-78
2022/02/15 00:15:44;;;;;;;6.00;3.50;;;7.50;99.90;;;6.12;96.09;100089.31;4930229;28;20097;-77
2022/02/15 00:18:19;;;;;;;7.10;3.42;;;7.50;99.90;;;6.09;96.68;100095.53;4913974;28;20029;-78
2022/02/15 00:20:45;;;;;;;6.38;3.25;;;7.40;99.90;;;6.09;96.93;100094.63;4947856;28;20028;-78
2022/02/15 00:23:11;;;;;;;8.80;3.15;;;7.50;99.90;;;6.12;96.98;100097.16;4910315;28;20039;-79
2022/02/15 00:25:38;;;;;;;7.40;3.35;;;7.50;99.90;;;6.17;97.36;100089.97;4958271;28;22049;-78
2022/02/15 00:28:07;;;;;;;5.45;2.80;;;7.50;99.90;;;6.24;96.60;100099.31;4948319;28;20527;-79
2022/02/15 00:30:33;;;;;;;6.28;3.10;;;7.50;99.90;;;6.24;96.83;100088.84;4961128;28;20034;-79
2022/02/15 00:32:58;;;;;;;7.65;3.50;;;7.60;99.90;;;6.27;96.82;100099.19;4941877;28;20637;-79
2022/02/15 00:35:24;;;;;;;13.82;3.55;;;7.60;99.90;;;6.27;96.36;100098.34;4929152;28;20041;-78
2022/02/15 00:37:50;;;;;;;7.28;3.42;;;7.60;99.90;;;6.27;96.93;100093.94;4943671;28;20037;-78
2022/02/15 00:40:16;;;;;;;8.93;3.53;;;7.60;99.90;;;6.26;96.94;100094.84;4959775;28;20032;-79
2022/02/15 00:42:52;;;;;;;8.13;3.50;;;7.60;99.90;;;6.30;97.04;100096.44;4933308;28;20198;-78
2022/02/15 00:45:17;;;;;;;6.60;3.23;;;7.60;99.90;;;6.33;96.61;100093.72;4928627;28;20021;-79
2022/02/15 00:47:43;;;;;;;6.63;3.35;;;7.70;99.90;;;6.38;96.54;100097.91;4933440;28;20599;-79
2022/02/15 00:50:13;;;;;;;8.43;3.63;;;7.70;99.90;;;6.37;96.24;100097.03;4932069;28;20410;-78
2022/02/15 00:52:39;;;;;;;9.80;3.65;;;7.70;99.90;;;6.36;95.89;100100.59;4984952;28;20029;-79
2022/02/15 00:55:08;;;;;;;8.95;3.67;;;7.70;99.90;;;6.34;95.80;100099.78;4928586;28;20064;-79
2022/02/15 00:57:36;;;;;;;11.20;3.60;;;7.60;99.90;;;6.31;95.84;100099.91;4919010;28;20045;-78
2022/02/15 01:00:09;;;;;;;10.60;3.85;;;7.60;99.90;;;6.29;96.29;100099.13;4899153;28;20993;-79
2022/02/15 01:02:34;;;;;;;11.20;3.90;;;7.60;99.90;;;6.26;96.31;100102.69;4926857;28;20577;-78
2022/02/15 01:05:00;;;;;;;6.80;3.85;;;7.60;99.90;;;6.24;96.67;100107.16;4934581;28;20034;-79
2022/02/15 01:07:26;;;;;;;11.13;4.03;;;7.60;99.90;;;6.27;97.14;100098.34;4954046;28;20038;-79
2022/02/15 01:09:52;;;;;;;7.35;3.50;;;7.60;99.90;;;6.30;97.21;100101.66;4968049;28;20037;-79
2022/02/15 01:12:22;;;;;;;8.50;3.40;;;7.60;99.90;;;6.33;96.68;100100.72;4936339;28;20542;-79
2022/02/15 01:14:50;;;;;;;6.57;3.20;;;7.70;99.90;;;6.35;96.53;100098.91;4912335;28;20042;-79
2022/02/15 01:17:16;;;;;;;8.50;3.28;;;7.70;99.90;;;6.35;96.72;100101.50;5005546;28;20056;-79
2022/02/15 01:19:42;;;;;;;9.70;3.35;;;7.70;99.90;;;6.37;96.52;100102.28;4949730;28;20099;-79
2022/02/15 01:22:08;;;;;;;8.82;3.47;;;7.70;99.90;;;6.36;96.04;100095.34;4966533;28;20037;-79
2022/02/15 01:24:34;;;;;;;8.82;3.50;;;7.80;99.90;;;6.39;96.08;100094.38;4959399;28;20020;-78
2022/02/15 01:27:06;;;;;;;9.63;3.72;;;7.80;99.90;;;6.40;96.19;100094.31;4957287;28;20021;-79
2022/02/15 01:29:32;;;;;;;8.85;3.78;;;7.80;99.90;;;6.40;96.02;100098.72;4932865;28;20041;-79
2022/02/15 01:31:58;;;;;;;8.13;3.70;;;7.80;99.90;;;6.40;96.03;100093.47;4935652;28;20026;-78
2022/02/15 01:34:24;;;;;;;7.45;3.42;;;7.80;99.90;;;6.42;95.62;100086.44;4936745;28;20157;-78
2022/02/15 01:36:58;;;;;;;6.50;3.28;;;7.80;99.90;;;6.42;95.32;100083.81;4934678;28;20475;-78
2022/02/15 01:39:24;;;;;;;9.60;3.58;;;7.70;99.90;;;6.40;95.44;100085.63;4953339;28;20042;-78
2022/02/15 01:41:50;;;;;;;9.70;3.55;;;7.70;99.90;;;6.35;95.02;100078.81;4976641;28;20025;-78
2022/02/15 01:44:21;;;;;;;17.40;4.00;;;7.70;99.90;;;6.34;94.86;100084.94;4934842;28;20025;-78
2022/02/15 01:46:48;;;;;;;6.50;3.55;;;7.60;99.90;;;6.29;94.87;100070.38;4939818;28;21676;-79
2022/02/15 01:49:14;;;;;;;5.95;3.30;;;7.60;99.90;;;6.25;95.20;100074.84;4947570;28;20038;-79
2022/02/15 01:51:40;;;;;;;8.75;3.45;;;7.60;99.90;;;6.20;95.12;100066.34;4947652;28;20119;-78
2022/02/15 01:54:05;;;;;;;10.32;3.20;;;7.50;99.90;;;6.14;94.73;100075.28;4951992;28;20029;-79
2022/02/15 01:56:32;;;;;;;8.57;3.85;;;7.50;99.90;;;6.11;95.33;100071.91;4947654;28;20035;-78
2022/02/15 01:58:57;;;;;;;8.60;2.92;;;7.40;99.90;;;6.03;94.85;100072.22;4928871;28;20021;-78
2022/02/15 02:01:28;;;;;;;10.15;3.50;;;7.40;99.90;;;6.01;95.14;100067.97;4937494;28;20449;-78
2022/02/15 02:03:54;;;;;;;6.53;3.25;;;7.30;99.90;;;5.98;95.04;100063.69;4956160;28;20021;-79
2022/02/15 02:06:19;;;;;;;7.15;2.92;;;7.30;99.90;;;5.93;95.38;100071.69;4914902;28;20382;-78
2022/02/15 02:08:47;;;;;;;8.05;2.67;;;7.30;99.90;;;5.90;95.34;100079.66;4941409;28;20030;-78
2022/02/15 02:11:12;;;;;;;11.48;3.47;;;7.20;99.90;;;5.88;95.39;100070.16;4912612;28;20109;-79
2022/02/15 02:13:38;;;;;;;11.13;2.92;;;7.20;99.90;;;5.80;95.98;100070.44;4973829;28;20418;-79
2022/02/15 02:16:10;;;;;;;5.60;3.00;;;7.20;99.90;;;5.81;95.91;100060.84;4937946;28;20076;-80
2022/02/15 02:18:36;;;;;;;8.50;2.90;;;7.20;99.90;;;5.73;96.02;100056.75;4912833;28;20042;-78
2022/02/15 02:21:16;;;;;;;9.95;2.58;;;7.10;99.90;;;5.67;95.69;100056.13;4934137;28;20032;-78
2022/02/15 02:23:42;;;;;;;10.80;3.88;;;7.10;99.90;;;5.64;95.96;100061.47;4919857;28;20039;-79
2022/02/15 02:26:08;;;;;;;9.23;3.03;;;7.00;99.90;;;5.61;95.44;100056.34;4922222;28;20018;-79
2022/02/15 02:28:44;;;;;;;8.23;2.83;;;6.90;99.90;;;5.54;95.81;100055.72;4931845;28;20026;-78
2022/02/15 02:31:10;;;;;;;7.60;3.05;;;6.90;99.90;;;5.45;96.05;100051.69;4925388;28;20033;-78
2022/02/15 02:33:36;;;;;;;9.45;3.30;;;6.80;99.90;;;5.39;96.05;100048.47;4941340;28;20030;-78
2022/02/15 02:36:02;;;;;;;8.10;2.67;;;6.80;99.90;;;5.37;96.19;100051.13;4977484;28;20733;-78
2022/02/15 02:38:37;;;;;;;8.13;2.72;;;6.80;99.90;;;5.29;96.74;100043.56;4921118;28;20759;-78
2022/02/15 02:41:03;;;;;;;7.25;2.80;;;6.80;99.90;;;5.31;96.93;100048.72;4952928;28;20037;-78
2022/02/15 02:43:29;;;;;;;10.30;2.90;;;6.80;99.90;;;5.32;97.24;100050.44;4925675;28;20067;-79
2022/02/15 02:45:59;;;;;;;10.02;2.80;;;6.80;99.90;;;5.30;96.95;100057.47;4948908;28;20409;-79
2022/02/15 02:48:25;;;;;;;7.30;2.58;;;6.70;99.90;;;5.26;97.27;100051.50;4947499;28;20026;-77
2022/02/15 02:50:51;;;;;;;8.93;2.65;;;6.70;99.90;;;5.26;97.45;100056.72;4956878;28;20189;-79
2022/02/15 02:53:18;;;;;;;11.55;3.38;;;6.70;99.90;;;5.27;97.26;100054.94;4927117;28;20552;-78
2022/02/15 02:55:43;;;;;;;5.68;2.40;;;6.70;99.90;;;5.28;97.52;100051.44;4955122;28;20045;-78
2022/02/15 02:58:09;;;;;;;10.73;2.88;;;6.70;99.90;;;5.27;97.66;100052.34;4922136;28;20038;-79
2022/02/15 03:00:41;;;;;;;9.57;2.58;;;6.70;99.90;;;5.23;97.71;100050.78;4925860;28;20037;-78
2022/02/15 03:03:07;;;;;;;14.10;3.03;;;6.70;99.90;;;5.24;97.64;100048.09;4934099;28;20104;-79
2022/02/15 03:05:34;;;;;;;12.05;2.92;;;6.70;99.90;;;5.23;97.44;100045.56;4923882;28;20101;-78
2022/02/15 03:08:00;;;;;;;7.35;2.45;;;6.70;99.90;;;5.27;97.63;100042.78;4945829;28;20083;-78
2022/02/15 03:10:32;;;;;;;9.45;2.80;;;6.70;99.90;;;5.29;97.48;100048.78;4928135;28;20490;-78
2022/02/15 03:12:58;;;;;;;11.98;3.05;;;6.80;99.90;;;5.30;97.12;100047.03;5025142;28;20035;-78
2022/02/15 03:15:25;;;;;;;8.40;2.85;;;6.70;99.90;;;5.30;97.18;100045.25;4955556;28;20050;-78
2022/02/15 03:17:51;;;;;;;9.35;2.80;;;6.80;99.90;;;5.33;97.27;100044.28;4974139;28;20020;-78
2022/02/15 03:20:17;;;;;;;11.98;2.95;;;6.80;99.90;;;5.31;96.86;100046.09;4932353;28;20052;-78
2022/02/15 03:22:48;;;;;;;8.98;2.97;;;6.80;99.90;;;5.30;96.86;100047.03;4967865;28;20032;-79
2022/02/15 03:25:14;;;;;;;13.68;3.08;;;6.70;99.90;;;5.27;97.15;100047.13;4930033;28;20037;-78
2022/02/15 03:27:40;;;;;;;7.55;2.55;;;6.70;99.90;;;5.27;97.03;100048.00;4979985;28;20102;-79
2022/02/15 03:30:06;;;;;;;10.10;2.55;;;6.70;99.90;;;5.26;96.83;100051.50;4954404;28;20033;-78
2022/02/15 03:32:32;;;;;;;11.57;3.10;;;6.70;99.90;;;5.24;97.03;100060.28;4939067;28;20041;-78
2022/02/15 03:35:07;;;;;;;12.77;2.97;;;6.70;99.90;;;5.23;97.17;100064.66;4918139;28;20033;-79
2022/02/15 03:37:33;;;;;;;10.73;3.13;;;6.70;99.90;;;5.20;97.12;100067.38;4933337;28;20745;-78
2022/02/15 03:39:59;;;;;;;13.38;2.67;;;6.70;99.90;;;5.18;96.58;100060.50;4959173;28;20037;-78
2022/02/15 03:45:12;;;;;;;12.48;2.45;;;6.70;99.90;;;5.21;96.70;100069.09;4999559;28;20083;-79
2022/02/15 03:47:38;;;;;;;8.30;2.30;;;6.70;99.90;;;5.25;96.33;100070.69;4916063;28;20117;-78
2022/02/15 03:50:05;;;;;;;8.65;2.15;;;6.70;99.90;;;5.30;96.20;100065.31;4939133;28;20033;-78
2022/02/15 03:52:31;;;;;;;10.00;2.50;;;6.70;99.90;;;5.35;95.83;100068.59;4948335;28;20034;-78
2022/02/15 03:54:57;;;;;;;10.35;2.08;;;6.80;99.90;;;5.38;95.38;100073.72;4920684;28;20099;-77
2022/02/15 03:57:35;;;;;;;8.98;2.42;;;6.80;99.90;;;5.37;95.46;100069.38;4925254;28;20096;-78
2022/02/15 04:00:07;;;;;;;7.43;2.30;;;6.80;99.90;;;5.34;95.24;100080.81;4935484;28;20037;-78
2022/02/15 04:02:33;;;;;;;10.57;2.42;;;6.80;99.90;;;5.32;94.94;100082.59;4944987;28;20032;-79
2022/02/15 04:04:59;;;;;;;11.02;2.20;;;6.80;99.90;;;5.31;95.17;100080.03;4960449;28;20033;-78
2022/02/15 04:07:25;;;;;;;7.22;2.08;;;6.80;99.90;;;5.28;95.22;100085.38;4912814;28;20030;-77
2022/02/15 04:09:51;;;;;;;8.38;2.17;;;6.70;99.90;;;5.27;95.31;100091.50;4962283;28;20033;-78
2022/02/15 04:12:17;;;;;;;6.63;2.58;;;6.80;99.90;;;5.25;95.33;100085.50;4930656;28;20504;-80
2022/02/15 04:14:44;;;;;;;8.82;2.33;;;6.70;99.90;;;5.26;95.72;100089.81;4914280;28;20537;-79
2022/02/15 04:17:13;;;;;;;7.82;2.35;;;6.70;99.90;;;5.31;95.45;100087.88;4922081;28;20103;-79
2022/02/15 04:19:40;;;;;;;8.38;2.72;;;6.70;99.90;;;5.28;95.39;100088.00;4955520;28;20587;-79
2022/02/15 04:22:07;;;;;;;6.35;2.08;;;6.70;99.90;;;5.26;94.98;100097.63;4927251;28;20095;-78
2022/02/15 04:24:33;;;;;;;10.07;2.97;;;6.70;99.90;;;5.23;94.89;100100.38;4956862;28;20018;-79
2022/02/15 04:27:06;;;;;;;8.50;2.97;;;6.70;99.90;;;5.16;94.88;100096.25;4910095;28;20049;-78
2022/02/15 04:29:33;;;;;;;6.97;2.28;;;6.70;99.90;;;5.13;95.02;100098.06;4937009;28;20120;-78
2022/02/15 04:31:59;;;;;;;11.40;2.30;;;6.60;99.90;;;5.07;95.39;100103.47;4939455;28;20033;-79
2022/02/15 04:34:24;;;;;;;8.15;2.00;;;6.60;99.90;;;4.99;95.52;100102.91;4939242;28;20037;-79
2022/02/15 04:36:50;;;;;;;6.53;2.10;;;6.50;99.90;;;4.94;96.00;100097.81;4942938;28;20040;-78
2022/02/15 04:39:25;;;;;;;8.13;2.40;;;6.50;99.90;;;4.93;96.15;100105.72;4939486;28;20076;-79
2022/02/15 04:41:51;;;;;;;6.35;2.63;;;6.40;99.90;;;4.85;96.48;100111.16;4914845;28;20089;-78
2022/02/15 04:44:17;;;;;;;8.23;2.55;;;6.40;99.90;;;4.80;96.89;100104.41;4911898;28;20021;-78
2022/02/15 04:46:49;;;;;;;8.05;2.70;;;6.30;99.90;;;4.76;96.72;100110.63;4909282;28;20036;-78
2022/02/15 04:49:14;;;;;;;10.50;2.40;;;6.30;99.90;;;4.67;97.17;100106.56;4930270;28;20103;-79
2022/02/15 04:51:40;;;;;;;9.20;2.63;;;6.20;99.90;;;4.65;96.98;100104.00;4925789;28;20744;-79
2022/02/15 04:54:06;;;;;;;11.02;3.28;;;6.20;99.90;;;4.66;97.64;100108.31;4969655;28;20029;-78
2022/02/15 04:56:32;;;;;;;13.98;3.03;;;6.20;99.90;;;4.70;97.91;100109.06;4913084;28;20037;-79
2022/02/15 04:58:58;;;;;;;9.98;3.00;;;6.20;99.90;;;4.79;97.91;100110.53;4948265;28;20025;-78
2022/02/15 05:01:32;;;;;;;11.38;3.00;;;6.30;99.90;;;4.90;97.48;100113.63;4913880;28;20533;-79
2022/02/15 05:03:58;;;;;;;11.07;2.42;;;6.40;99.90;;;5.02;97.55;100113.22;4940227;28;20028;-78
2022/02/15 05:06:24;;;;;;;10.25;2.47;;;6.50;99.90;;;5.12;97.06;100121.59;4937359;28;20514;-78
2022/02/15 05:08:50;;;;;;;13.73;3.00;;;6.60;99.90;;;5.19;96.68;100111.81;4954513;28;20031;-78
2022/02/15 05:11:21;;;;;;;11.52;2.92;;;6.60;99.90;;;5.29;95.89;100121.88;4930725;28;20014;-80
2022/02/15 05:13:47;;;;;;;12.05;2.90;;;6.70;99.90;;;5.34;95.83;100113.91;4942917;28;20567;-79
2022/02/15 05:16:13;;;;;;;13.02;2.60;;;6.80;99.90;;;5.38;95.24;100107.66;4962930;28;20050;-79
2022/02/15 05:18:39;;;;;;;11.25;2.85;;;6.80;99.90;;;5.42;95.10;100109.25;4964485;28;20034;-78
2022/02/15 05:21:05;;;;;;;9.15;2.50;;;6.90;99.90;;;5.47;94.77;100086.44;4942553;28;20090;-78
2022/02/15 05:23:36;;;;;;;14.00;3.30;;;6.90;99.90;;;5.49;94.54;100109.91;4956542;28;20030;-79
2022/02/15 05:26:03;;;;;;;7.55;2.90;;;6.90;99.90;;;5.50;94.48;100101.97;4920432;28;20034;-78
2022/02/15 05:28:28;;;;;;;10.00;3.92;;;6.90;99.90;;;5.49;94.14;100110.75;4941689;28;20045;-79
2022/02/15 05:30:54;;;;;;;10.88;4.03;;;6.90;99.90;;;5.41;93.86;100112.75;4933914;28;20034;-78
2022/02/15 05:33:20;;;;;;;8.55;3.28;;;6.90;99.90;;;5.41;94.30;100119.75;4908130;28;20059;-78
2022/02/15 05:35:46;;;;;;;9.23;2.97;;;6.90;99.90;;;5.43;94.13;100120.56;4953313;28;20033;-78
2022/02/15 05:38:17;;;;;;;9.98;3.00;;;6.90;99.90;;;5.42;94.14;100122.31;4954309;28;20457;-80
2022/02/15 05:40:43;;;;;;;12.63;3.15;;;6.90;99.90;;;5.44;93.82;100117.03;4957322;28;20083;-79
2022/02/15 05:43:13;;;;;;;7.40;2.90;;;6.90;99.90;;;5.44;94.15;100123.13;4946139;28;20472;-78
2022/02/15 05:45:46;;;;;;;15.43;3.15;;;6.90;99.90;;;5.43;94.16;100126.63;4973312;28;20045;-79
2022/02/15 05:48:12;;;;;;;9.75;2.80;;;6.90;99.90;;;5.38;94.43;100123.31;4994570;28;20435;-78
2022/02/15 05:50:50;;;;;;;12.38;3.25;;;6.90;99.90;;;5.35;94.04;100132.09;4925669;28;20037;-79
2022/02/15 05:53:29;;;;;;;9.32;3.38;;;6.80;99.90;;;5.25;94.17;100137.72;4963453;28;21810;-78
2022/02/15 05:55:59;;;;;;;10.25;3.47;;;6.70;99.90;;;5.18;94.06;100138.81;4944175;28;20033;-80
2022/02/15 05:58:32;;;;;;;10.95;3.45;;;6.70;99.90;;;5.14;94.30;100141.53;4957355;28;20078;-79
2022/02/15 06:00:59;;;;;;;10.77;3.40;;;6.60;99.90;;;5.11;94.83;100144.22;4973108;28;20040;-78
2022/02/15 06:06:20;;;;;;;17.65;4.63;;;6.60;99.90;;;5.09;94.88;100148.63;4956790;28;20040;-79
2022/02/15 06:08:46;;;;;;;15.80;4.78;;;6.60;99.90;;;5.07;94.97;100141.78;4947195;28;20029;-79
2022/02/15 06:11:11;;;;;;;11.02;3.70;;;6.60;99.90;;;5.09;95.04;100146.03;4968802;28;20022;-79
2022/02/15 06:13:37;;;;;;;13.80;4.10;;;6.50;99.90;;;5.10;94.88;100144.28;4957452;28;20531;-79
2022/02/15 06:16:08;;;;;;;10.95;4.13;;;6.60;99.90;;;5.14;94.91;100145.91;4934592;28;20044;-79
2022/02/15 06:18:34;;;;;;;11.50;3.65;;;6.60;99.90;;;5.14;94.73;100157.19;4952877;28;22302;-78
2022/02/15 06:21:01;;;;;;;12.68;4.05;;;6.60;99.90;;;5.12;94.81;100161.59;4915404;28;20030;-79
2022/02/15 06:23:27;;;;;;;9.00;4.10;;;6.60;99.90;;;5.05;94.58;100160.06;4932384;28;20026;-80
2022/02/15 06:25:53;;;;;;;11.70;4.15;;;6.50;99.90;;;5.03;94.72;100174.09;4928200;28;20386;-79
2022/02/15 06:28:26;;;;;;;11.18;3.78;;;6.50;99.90;;;4.98;94.54;100166.41;4931744;28;20025;-79
2022/02/15 06:30:52;;;;;;;14.88;4.07;;;6.40;99.90;;;4.94;94.88;100177.84;4946887;28;20069;-78
2022/02/15 06:33:18;;;;;;;11.05;3.95;;;6.40;99.90;;;4.99;95.17;100180.31;4940233;28;20030;-78
2022/02/15 06:35:44;;;;;;;12.93;3.70;;;6.50;99.90;;;5.08;95.36;100170.44;4923984;28;20042;-79
2022/02/15 06:38:10;;;;;;;11.23;4.00;;;6.60;99.90;;;5.20;94.99;100176.16;4971030;28;20032;-79
2022/02/15 06:40:44;;;;;;;7.00;3.53;;;;;;;5.29;94.66;100170.59;4914757;28;20024;-79
2022/02/15 06:43:10;;;;;;;12.80;4.32;;;6.70;99.90;;;5.33;94.11;100173.09;4957140;28;20020;-79
2022/02/15 06:45:37;;;;;;;10.75;4.18;;;6.80;99.90;;;5.34;94.01;100164.34;4924761;28;20040;-79
2022/02/15 06:48:10;;;;;;;11.93;4.05;;;6.80;99.90;;;5.38;93.66;100172.06;4949516;28;20478;-80
2022/02/15 06:50:36;;;;;;;9.15;3.78;;;6.80;99.90;;;5.37;93.52;100179.03;4926556;28;20041;-79
2022/02/15 06:53:02;;;;;;;10.07;4.70;;;6.80;99.90;;;5.39;93.62;100182.47;4957816;28;20052;-79
2022/02/15 06:55:28;;;;;;;9.73;3.65;;;6.80;99.90;;;5.46;93.16;100183.94;4937709;28;20049;-79
2022/02/15 06:57:54;;;;;;;9.32;4.05;;;6.90;99.90;;;5.54;93.20;100188.91;4945589;28;20033;-78
2022/02/15 07:00:27;;;;;;;10.07;4.68;;;6.90;99.90;;;5.56;93.06;100187.09;4925859;28;20025;-79
2022/02/15 07:02:53;;;;;;;7.45;3.75;;;7.00;99.90;;;5.54;92.83;100188.91;4939335;28;20564;-80
2022/02/15 07:05:19;;;;;;;9.93;4.18;;;6.90;99.90;;;5.54;92.77;100194.13;4927827;28;20047;-79
2022/02/15 07:07:45;;;;;;;8.98;3.60;;;6.90;99.90;;;5.60;92.38;100201.78;4929707;28;20032;-81
2022/02/15 07:10:16;;;;;;;10.15;4.22;;;7.00;99.90;;;5.72;91.90;100213.53;4942788;28;20038;-79
2022/02/15 07:12:42;;;;;;;13.13;4.70;;;7.10;99.90;;;6.02;91.37;100219.47;4931371;28;20043;-80
2022/02/15 07:15:09;;;;;;;10.90;4.35;;;7.20;99.90;;;6.15;90.56;100223.38;4970172;28;20045;-78
2022/02/15 07:17:44;;;;;;;8.43;4.10;;;7.30;99.90;;;6.40;89.52;100224.22;4935769;28;20032;-79
2022/02/15 07:20:11;;;;;;;6.85;3.50;;;7.40;99.90;;;6.34;89.19;100233.16;4935627;28;20475;-80
2022/02/15 07:22:37;;;;;;;15.20;5.32;;;7.50;99.90;;;6.30;88.88;100229.78;4949163;28;20501;-79
2022/02/15 07:25:05;;;;;;;12.73;4.65;;;7.50;99.90;;;6.26;89.20;100233.41;4940367;28;20045;-79
2022/02/15 07:27:38;;;;;;;10.45;4.43;;;7.60;99.90;;;6.28;89.59;100247.28;4928048;28;20028;-79
2022/02/15 07:30:05;;;;;;;7.20;4.18;;;7.60;99.90;;;6.27;89.28;100250.81;4914673;28;20030;-78
2022/02/15 07:32:31;;;;;;;9.95;4.43;;;7.70;99.90;;;6.32;89.46;100242.81;4954443;28;20387;-79
2022/02/15 07:34:57;;;;;;;9.88;4.68;;;7.70;99.90;;;6.31;89.41;100246.34;4935464;28;20051;-80
2022/02/15 07:37:29;;;;;;;9.48;4.38;;;7.70;99.90;;;6.34;89.37;100254.06;4950614;28;20025;-80
2022/02/15 07:39:55;;;;;;;11.35;4.32;;;7.70;99.90;;;6.35;89.53;100246.19;4908551;28;20222;-78
2022/02/15 07:42:21;;;;;;;9.05;4.47;;;7.80;99.90;;;6.37;89.47;100253.94;5027465;28;20071;-79
2022/02/15 07:44:47;;;;;;;12.32;4.75;;;7.80;99.90;;;6.42;89.10;100259.88;4956231;28;20536;-80
2022/02/15 07:47:13;;;;;;;12.18;4.22;;;7.80;99.90;;;6.44;88.94;100258.06;4919555;28;20100;-80
2022/02/15 07:49:46;;;;;;;13.10;3.83;;;7.80;99.90;;;6.46;89.26;100218.78;4927607;28;20985;-80
2022/02/15 07:52:14;;;;;;;11.02;4.32;;;7.90;99.90;;;6.53;88.88;100215.00;4945626;28;20029;-79
2022/02/15 07:54:40;;;;;;;11.93;4.05;;;7.90;99.90;;;6.55;88.95;100252.44;4932985;28;20048;-78
2022/02/15 07:57:06;;;;;;;9.02;3.80;;;7.90;99.90;;;6.55;88.62;100262.88;4932329;28;20038;-79
2022/02/15 07:59:38;;;;;;;9.40;3.92;;;6.00;99.90;;;6.65;88.18;100277.34;4901276;28;20038;-81
2022/02/15 08:02:04;;;;;;;10.70;3.92;;;8.00;99.90;;;6.71;87.95;100271.00;4936941;28;20051;-79
2022/02/15 08:04:30;;;;;;;9.35;3.78;;;8.10;99.90;;;6.72;88.20;100276.19;4918563;28;20033;-78
2022/02/15 08:06:55;;;;;;;10.05;4.57;;;8.00;99.90;;;6.80;88.00;100277.66;4943264;28;20024;-80
2022/02/15 08:09:23;;;;;;;9.02;3.92;;;8.10;99.90;;;6.86;87.44;100280.88;4916656;28;20136;-78
2022/02/15 08:11:55;;;;;;;8.80;3.90;;;8.20;99.90;;;6.89;87.61;100291.25;4887081;28;20034;-80
2022/02/15 08:14:22;;;;;;;11.23;3.65;;;8.20;99.90;;;6.92;87.02;100291.13;4924034;28;20522;-79
2022/02/15 08:16:48;;;;;;;8.35;4.35;;;8.30;99.90;;;6.92;86.98;100291.13;4917323;28;20125;-80
2022/02/15 08:19:14;;;;;;;11.52;4.20;;;8.20;99.90;;;6.93;86.50;100286.72;4913671;28;20097;-79
2022/02/15 08:21:45;;;;;;;9.82;4.70;;;8.30;99.90;;;6.91;87.10;100292.06;4908435;28;20081;-80
2022/02/15 08:24:11;;;;;;;10.70;5.00;;;8.30;99.90;;;6.98;86.84;100287.44;4956628;28;20026;-79
2022/02/15 08:26:37;;;;;;;8.68;4.05;;;8.40;99.90;;;7.03;87.00;100288.09;4941140;28;20029;-80
2022/02/15 08:29:03;;;;;;;9.18;4.50;;;8.40;99.90;;;7.09;86.40;100290.47;4931585;28;20045;-80
2022/02/15 08:31:29;;;;;;;11.23;4.80;;;8.40;99.90;;;7.11;86.66;100293.88;4917697;28;20029;-80
2022/02/15 08:34:00;;;;;;;14.27;5.05;;;8.40;99.90;;;7.14;86.25;100298.16;4954486;28;20080;-80
2022/02/15 08:36:26;;;;;;;16.92;7.05;;;8.50;99.90;;;7.19;86.71;100294.44;4971683;28;20095;-80
2022/02/15 08:38:52;;;;;;;12.85;4.88;;;8.50;99.90;;;7.13;86.24;100297.28;4956815;28;20044;-81
2022/02/15 08:41:18;;;;;;;11.05;4.30;;;8.50;99.90;;;7.21;86.58;100301.38;4923617;28;20111;-79
2022/02/15 08:43:44;;;;;;;9.60;3.40;;;8.50;99.90;;;7.22;86.09;100300.47;4924892;28;20461;-80
2022/02/15 08:46:09;;;;;;;8.32;3.47;;;8.50;99.90;;;7.20;86.19;100305.75;4928026;28;20063;-81
2022/02/15 08:48:44;;;;;;;8.00;3.85;;;8.70;99.90;;;7.21;86.24;100304.00;4940755;28;20043;-80
2022/02/15 08:51:10;;;;;;;8.40;3.38;;;8.50;99.90;;;7.18;86.30;100320.69;4933722;28;20527;-80
2022/02/15 08:53:38;;;;;;;12.40;4.00;;;8.50;99.90;;;7.24;86.31;100320.44;4915679;28;20105;-79
2022/02/15 08:56:08;;;;;;;7.93;3.60;;;8.50;99.90;;;7.19;86.38;100325.00;4933217;28;20044;-80
2022/02/15 08:58:34;;;;;;;7.78;3.80;;;8.50;99.90;;;7.15;86.52;100326.91;5004051;28;20062;-80
2022/02/15 09:01:02;;;;;;;9.82;3.47;;;8.50;99.90;;;7.20;86.72;100326.72;4941165;28;20230;-79
2022/02/15 09:03:29;;;;;;;8.38;3.92;;;8.50;99.90;;;7.21;86.73;100332.78;4908599;28;20050;-80
2022/02/15 09:06:04;;;;;;;8.73;3.55;;;8.50;99.90;;;7.21;86.54;100332.78;4930595;28;20067;-80
2022/02/15 09:08:30;;;;;;;10.20;4.25;;;8.50;99.90;;;7.15;86.24;100339.13;4933503;28;20042;-80
2022/02/15 09:10:57;;;;;;;9.57;4.13;;;8.50;99.90;;;7.22;86.23;100345.00;4920819;28;20034;-79
2022/02/15 09:13:30;;;;;;;9.07;3.83;;;8.50;99.90;;;7.19;86.49;100341.56;4954425;28;20065;-81
2022/02/15 09:15:57;;;;;;;10.43;4.70;;;8.50;99.90;;;7.22;86.47;100339.75;4931533;28;20041;-79
2022/02/15 09:18:23;;;;;;;12.95;5.32;;;8.50;99.90;;;7.21;86.59;100338.88;4934288;28;20072;-80
2022/02/15 09:20:48;;;;;;;13.85;5.07;;;8.50;99.90;;;7.24;86.91;100343.16;4934672;28;20022;-81
2022/02/15 09:23:23;;;;;;;11.10;4.32;;;8.50;99.90;;;7.23;86.76;100339.66;4917826;28;20029;-81
2022/02/15 09:25:49;;;;;;;9.15;4.05;;;8.60;99.90;;;7.29;86.39;100349.06;4928704;28;20113;-81
2022/02/15 09:28:15;;;;;;;11.70;4.72;;;8.60;99.90;;;7.29;86.39;100343.81;4914636;28;20033;-80
2022/02/15 09:30:41;;;;;;;13.98;3.80;;;8.60;99.90;;;7.28;86.49;100355.19;4941517;28;20021;-79
2022/02/15 09:33:14;;;;;;;9.75;3.60;;;8.60;99.90;;;7.28;86.58;100349.97;4940410;28;20029;-80
2022/02/15 09:35:40;;;;;;;12.13;3.85;;;8.60;99.90;;;7.25;87.00;100353.56;4925817;28;20049;-80
2022/02/15 09:38:06;;;;;;;8.07;3.67;;;8.60;99.90;;;7.26;86.76;100357.91;4947487;28;20030;-80
2022/02/15 09:40:32;;;;;;;10.50;3.55;;;8.60;99.90;;;7.28;86.84;100357.81;4954337;28;20497;-80
2022/02/15 09:42:58;;;;;;;5.90;3.53;;;8.60;99.90;;;7.26;86.86;100364.91;4935002;28;20032;-79
2022/02/15 09:45:28;;;;;;;6.10;3.22;;;8.60;99.90;;;7.31;86.75;100361.19;4963971;28;20091;-79
2022/02/15 09:47:56;;;;;;;10.98;4.18;;;8.60;99.90;;;7.35;86.66;100368.00;4928678;28;20057;-81
2022/02/15 09:50:23;;;;;;;7.03;3.25;;;8.70;99.90;;;7.38;86.61;100375.75;4925923;28;20048;-80
2022/02/15 09:52:50;;;;;;;8.07;3.33;;;8.70;99.90;;;7.41;86.72;100366.94;4955075;28;21039;-80
2022/02/15 09:55:21;;;;;;;6.47;3.28;;;8.70;99.90;;;7.42;86.32;100381.72;4940660;28;20050;-81
2022/02/15 09:57:47;;;;;;;5.07;2.85;;;8.70;99.90;;;7.44;86.17;100382.50;4915818;28;20041;-79
2022/02/15 10:00:14;;;;;;;7.28;3.58;;;8.70;99.90;;;7.46;86.46;100385.94;4920863;28;20029;-79
2022/02/15 10:02:42;;;;;;;7.68;3.05;;;8.70;99.90;;;7.42;85.80;100386.97;4922380;28;20227;-80
2022/02/15 10:05:18;;;;;;;6.43;2.80;;;8.70;99.90;;;7.39;86.26;100382.69;4967075;28;20026;-81
2022/02/15 10:07:57;;;;;;;7.88;3.15;;;8.70;99.90;;;7.37;86.13;100387.16;4918375;28;20441;-82
2022/02/15 10:10:35;;;;;;;4.88;2.72;;;8.70;99.90;;;7.45;85.64;100386.84;4965619;28;20085;-80
2022/02/15 10:13:14;;;;;;;3.67;2.50;;;8.70;99.90;;;7.47;86.25;100390.25;4936505;28;20087;-82
2022/02/15 10:15:44;;;;;;;6.90;2.70;;;8.80;99.90;;;7.42;85.89;100400.06;4943782;28;20044;-80
2022/02/15 10:18:27;;;;;;;4.25;2.60;;;8.80;99.90;;;7.43;85.52;100398.28;4928825;28;20036;-80
2022/02/15 10:20:57;;;;;;;4.55;2.70;;;8.70;99.90;;;7.42;85.56;100405.28;4917380;28;20053;-80
2022/02/15 10:23:34;;;;;;;3.25;2.20;;;8.70;99.90;;;7.44;85.49;100408.72;4926586;28;20060;-79
2022/02/15 10:26:07;;;;;;;6.47;2.33;;;8.70;99.90;;;7.48;85.13;100406.84;4959514;28;20037;-81
2022/02/15 10:28:33;;;;;;;5.22;2.70;;;8.80;99.90;;;7.51;85.38;100402.31;4914780;28;20030;-80
2022/02/15 10:31:05;;;;;;;7.18;2.65;;;8.80;99.90;;;7.52;84.85;100417.13;4927767;28;20032;-79